createdAt,value
2023-02-04T00:00:37.732Z,11.60
2023-02-04T00:03:26.502Z,11.40
2023-02-04T00:05:54.660Z,11.30
2023-02-04T00:08:22.847Z,12.00
2023-02-04T00:10:50.978Z,8.30
2023-02-04T00:13:19.123Z,9.30
2023-02-04T00:15:47.201Z,9.60
2023-02-04T00:18:15.768Z,9.40
2023-02-04T00:20:43.803Z,9.30
2023-02-04T00:23:11.921Z,10.40
2023-02-04T00:25:39.990Z,8.30
2023-02-04T00:28:08.313Z,9.10
2023-02-04T00:30:36.343Z,8.50
2023-02-04T00:33:04.568Z,8.20
2023-02-04T00:35:32.711Z,7.90
2023-02-04T00:38:00.785Z,10.00
2023-02-04T00:40:29.577Z,7.80
2023-02-04T00:42:58.271Z,7.70
2023-02-04T00:45:26.397Z,7.50
2023-02-04T00:47:54.479Z,7.10
2023-02-04T00:50:22.601Z,10.00
2023-02-04T00:52:52.622Z,7.70
2023-02-04T00:55:20.701Z,6.70
2023-02-04T00:57:48.773Z,6.90
2023-02-04T01:00:17.872Z,6.30
2023-02-04T01:02:45.981Z,7.20
2023-02-04T01:05:15.006Z,6.90
2023-02-04T01:07:43.540Z,5.40
2023-02-04T01:10:12.052Z,7.40
2023-02-04T01:12:40.218Z,6.00
2023-02-04T01:15:09.248Z,5.40
2023-02-04T01:17:37.376Z,4.80
2023-02-04T01:20:05.871Z,5.70
2023-02-04T01:22:34.257Z,4.70
2023-02-04T01:25:02.763Z,5.80
2023-02-04T01:27:46.376Z,4.90
2023-02-04T01:30:16.197Z,6.50
2023-02-04T01:32:44.342Z,4.80
2023-02-04T01:35:12.545Z,5.90
2023-02-04T01:37:40.733Z,4.80
2023-02-04T01:40:10.644Z,5.50
2023-02-04T01:42:39.433Z,4.00
2023-02-04T01:45:10.475Z,5.30
2023-02-04T01:47:39.460Z,4.00
2023-02-04T01:50:10.472Z,4.50
2023-02-04T01:52:40.237Z,4.00
2023-02-04T01:55:20.690Z,4.30
2023-02-04T01:57:53.068Z,4.10
2023-02-04T02:00:40.271Z,4.10
2023-02-04T02:03:12.241Z,4.80
2023-02-04T02:05:45.128Z,3.70
2023-02-04T02:08:14.323Z,4.50
2023-02-04T02:10:44.802Z,7.60
2023-02-04T02:13:17.026Z,4.50
2023-02-04T02:15:47.570Z,5.10
2023-02-04T02:18:16.670Z,5.20
2023-02-04T02:20:46.626Z,4.40
2023-02-04T02:23:27.139Z,5.10
2023-02-04T02:25:55.525Z,5.00
2023-02-04T02:28:24.935Z,5.60
2023-02-04T02:30:53.537Z,6.10
2023-02-04T02:33:22.038Z,6.40
2023-02-04T02:35:51.019Z,7.40
2023-02-04T02:38:20.310Z,7.30
2023-02-04T02:40:49.438Z,7.60
2023-02-04T02:43:21.583Z,7.40
2023-02-04T02:45:50.497Z,6.90
2023-02-04T02:48:19.164Z,7.00
2023-02-04T02:50:49.080Z,7.10
2023-02-04T02:53:19.596Z,6.40
2023-02-04T02:55:48.703Z,6.70
2023-02-04T02:58:29.783Z,7.90
2023-02-04T03:00:59.602Z,6.40
2023-02-04T03:03:31.975Z,6.40
2023-02-04T03:06:06.590Z,6.80
2023-02-04T03:08:35.338Z,5.80
2023-02-04T03:11:03.568Z,7.30
2023-02-04T03:13:34.350Z,7.40
2023-02-04T03:16:03.410Z,6.50
2023-02-04T03:18:31.995Z,4.80
2023-02-04T03:21:00.393Z,5.40
2023-02-04T03:23:28.683Z,7.60
2023-02-04T03:25:57.526Z,5.80
2023-02-04T03:28:25.950Z,5.90
2023-02-04T03:30:56.269Z,6.70
2023-02-04T03:33:29.085Z,6.80
2023-02-04T03:35:58.344Z,5.70
2023-02-04T03:38:27.354Z,6.80
2023-02-04T03:40:55.529Z,5.60
2023-02-04T03:43:23.711Z,7.50
2023-02-04T03:45:52.062Z,5.80
2023-02-04T03:48:20.579Z,8.40
2023-02-04T03:50:48.751Z,5.50
2023-02-04T03:53:17.248Z,6.00
2023-02-04T03:55:45.296Z,5.00
2023-02-04T03:58:13.397Z,6.30
2023-02-04T04:00:41.578Z,6.40
2023-02-04T04:03:09.803Z,6.30
2023-02-04T04:05:38.133Z,5.60
2023-02-04T04:08:06.517Z,6.00
2023-02-04T04:10:34.873Z,5.40
2023-02-04T04:13:03.076Z,5.30
2023-02-04T04:15:32.133Z,5.20
2023-02-04T04:18:00.781Z,5.40
2023-02-04T04:20:29.366Z,4.60
2023-02-04T04:22:57.749Z,6.10
2023-02-04T04:25:25.822Z,5.40
2023-02-04T04:27:54.029Z,5.30
2023-02-04T04:30:22.316Z,5.60
2023-02-04T04:32:50.352Z,5.00
2023-02-04T04:35:18.634Z,4.30
2023-02-04T04:37:46.716Z,4.20
2023-02-04T04:40:15.098Z,4.70
2023-02-04T04:42:43.365Z,5.00
2023-02-04T04:45:12.265Z,5.00
2023-02-04T04:47:40.544Z,5.60
2023-02-04T04:50:09.445Z,4.40
2023-02-04T04:52:37.724Z,4.80
2023-02-04T04:55:06.622Z,3.80
2023-02-04T04:57:34.895Z,4.40
2023-02-04T05:00:04.099Z,4.80
2023-02-04T05:02:32.478Z,6.30
2023-02-04T05:05:00.827Z,5.40
2023-02-04T05:07:29.056Z,6.10
2023-02-04T05:09:57.126Z,5.70
2023-02-04T05:12:25.209Z,5.90
2023-02-04T05:14:53.282Z,5.20
2023-02-04T05:17:21.467Z,5.20
2023-02-04T05:19:49.525Z,4.70
2023-02-04T05:22:17.612Z,5.50
2023-02-04T05:24:45.689Z,5.10
2023-02-04T05:27:13.767Z,5.70
2023-02-04T05:29:42.143Z,5.90
2023-02-04T05:32:10.110Z,4.60
2023-02-04T05:34:39.887Z,6.20
2023-02-04T05:37:08.055Z,5.50
2023-02-04T05:39:36.295Z,7.40
2023-02-04T05:42:04.382Z,7.00
2023-02-04T05:44:32.392Z,8.30
2023-02-04T05:47:00.430Z,6.80
2023-02-04T05:49:28.601Z,6.60
2023-02-04T05:51:56.671Z,7.30
2023-02-04T05:54:24.960Z,7.60
2023-02-04T05:56:53.054Z,7.90
2023-02-04T05:59:21.095Z,8.00
2023-02-04T06:01:49.494Z,9.30
2023-02-04T06:04:18.061Z,9.60
2023-02-04T06:06:46.406Z,8.00
2023-02-04T06:09:14.646Z,10.90
2023-02-04T06:11:42.738Z,12.30
2023-02-04T06:14:11.204Z,12.30
2023-02-04T06:16:39.617Z,13.00
2023-02-04T06:19:07.656Z,13.50
2023-02-04T06:21:35.742Z,13.60
2023-02-04T06:24:05.414Z,13.00
2023-02-04T06:26:33.624Z,12.20
2023-02-04T06:29:02.210Z,12.80
2023-02-04T06:31:30.959Z,12.40
2023-02-04T06:33:59.189Z,11.70
2023-02-04T06:36:27.171Z,12.10
2023-02-04T06:38:55.145Z,11.70
2023-02-04T06:41:23.426Z,10.40
2023-02-04T06:43:51.494Z,13.10
2023-02-04T06:46:19.508Z,11.40
2023-02-04T06:48:47.858Z,11.20
2023-02-04T06:51:16.025Z,10.90
2023-02-04T06:53:45.974Z,10.60
2023-02-04T06:56:14.132Z,13.00
2023-02-04T06:58:42.211Z,13.10
2023-02-04T07:01:10.505Z,11.30
2023-02-04T07:03:38.557Z,10.80
2023-02-04T07:06:06.574Z,12.70
2023-02-04T07:08:34.563Z,11.30
2023-02-04T07:11:02.692Z,10.70
2023-02-04T07:13:30.647Z,10.90
2023-02-04T07:15:58.635Z,9.90
2023-02-04T07:18:26.834Z,13.00
2023-02-04T07:20:55.026Z,12.20
2023-02-04T07:23:25.019Z,13.50
2023-02-04T07:25:53.912Z,11.30
2023-02-04T07:28:22.911Z,11.20
2023-02-04T07:30:51.021Z,10.60
2023-02-04T07:33:19.162Z,13.50
2023-02-04T07:35:47.244Z,11.20
2023-02-04T07:38:15.337Z,12.80
2023-02-04T07:40:43.711Z,15.90
2023-02-04T07:43:12.176Z,13.00
2023-02-04T07:45:40.493Z,13.80
2023-02-04T07:48:08.555Z,12.80
2023-02-04T07:50:37.326Z,14.70
2023-02-04T07:53:05.411Z,12.60
2023-02-04T07:55:33.703Z,11.20
2023-02-04T07:58:01.720Z,11.80
2023-02-04T08:00:30.333Z,15.80
2023-02-04T08:02:58.814Z,14.30
2023-02-04T08:05:27.012Z,13.90
2023-02-04T08:07:54.981Z,15.50
2023-02-04T08:10:23.061Z,14.00
2023-02-04T08:12:51.236Z,15.20
2023-02-04T08:15:19.257Z,16.30
2023-02-04T08:17:47.292Z,12.50
2023-02-04T08:20:16.691Z,15.70
2023-02-04T08:22:44.798Z,15.00
2023-02-04T08:25:13.477Z,16.60
2023-02-04T08:27:41.779Z,15.20
2023-02-04T08:30:10.476Z,15.90
2023-02-04T08:32:39.531Z,16.40
2023-02-04T08:35:08.631Z,16.90
2023-02-04T08:37:36.807Z,16.10
2023-02-04T08:40:05.602Z,15.60
2023-02-04T08:42:34.896Z,19.00
2023-02-04T08:45:04.003Z,16.30
2023-02-04T08:47:32.191Z,17.10
2023-02-04T08:50:00.284Z,18.90
2023-02-04T08:52:28.550Z,16.40
2023-02-04T08:54:56.527Z,15.30
2023-02-04T08:57:24.605Z,15.50
2023-02-04T08:59:52.743Z,16.90
2023-02-04T09:02:20.752Z,15.40
2023-02-04T09:04:49.045Z,14.90
2023-02-04T09:07:17.064Z,16.00
2023-02-04T09:09:45.117Z,14.20
2023-02-04T09:12:13.283Z,17.00
2023-02-04T09:14:41.463Z,15.90
2023-02-04T09:17:09.749Z,16.60
2023-02-04T09:19:37.941Z,16.20
2023-02-04T09:22:05.997Z,15.10
2023-02-04T09:24:34.200Z,16.20
2023-02-04T09:27:02.435Z,16.60
2023-02-04T09:29:30.563Z,15.20
2023-02-04T09:31:58.750Z,18.50
2023-02-04T09:34:27.002Z,16.40
2023-02-04T09:36:55.083Z,16.50
2023-02-04T09:39:23.153Z,15.20
2023-02-04T09:41:54.204Z,16.30
2023-02-04T09:44:25.269Z,15.10
2023-02-04T09:46:56.950Z,18.70
2023-02-04T09:49:26.564Z,16.60
2023-02-04T09:51:55.829Z,16.50
2023-02-04T09:54:25.122Z,18.50
2023-02-04T09:56:53.294Z,16.50
2023-02-04T09:59:23.935Z,15.50
2023-02-04T10:01:57.423Z,16.50
2023-02-04T10:04:25.904Z,21.50
2023-02-04T10:06:55.726Z,18.20
2023-02-04T10:09:23.785Z,17.80
2023-02-04T10:11:51.865Z,15.80
2023-02-04T10:14:23.148Z,16.50
2023-02-04T10:16:59.472Z,16.80
2023-02-04T10:19:30.916Z,17.10
2023-02-04T10:21:59.527Z,21.40
2023-02-04T10:24:30.811Z,21.30
2023-02-04T10:27:16.048Z,19.70
2023-02-04T10:29:56.181Z,22.70
2023-02-04T10:32:33.088Z,18.50
2023-02-04T10:35:03.182Z,18.90
2023-02-04T10:37:32.339Z,19.00
2023-02-04T10:40:00.705Z,18.10
2023-02-04T10:42:30.997Z,18.50
2023-02-04T10:44:59.210Z,18.60
2023-02-04T10:47:31.309Z,19.80
2023-02-04T10:50:18.731Z,20.40
2023-02-04T10:52:51.355Z,18.40
2023-02-04T10:55:23.422Z,18.30
2023-02-04T10:57:53.234Z,23.00
2023-02-04T11:00:24.386Z,21.10
2023-02-04T11:03:08.348Z,21.70
2023-02-04T11:05:37.217Z,23.00
2023-02-04T11:08:25.674Z,19.80
2023-02-04T11:11:04.334Z,21.30
2023-02-04T11:13:44.778Z,20.40
2023-02-04T11:16:24.427Z,21.20
2023-02-04T11:19:14.572Z,21.10
2023-02-04T11:21:45.383Z,19.60
2023-02-04T11:24:16.223Z,20.70
2023-02-04T11:27:04.107Z,24.30
2023-02-04T11:29:43.043Z,21.30
2023-02-04T11:32:38.155Z,22.10
2023-02-04T11:35:22.339Z,21.90
2023-02-04T11:37:50.801Z,20.50
2023-02-04T11:40:34.575Z,21.80
2023-02-04T11:43:15.510Z,20.80
2023-02-04T11:45:44.611Z,21.50
2023-02-04T11:48:16.369Z,24.10
2023-02-04T11:51:02.352Z,23.10
2023-02-04T11:56:00.196Z,21.00
2023-02-04T11:58:31.171Z,23.90
2023-02-04T12:00:59.675Z,20.80
2023-02-04T12:03:30.776Z,22.40
2023-02-04T12:05:59.811Z,23.90
2023-02-04T12:08:36.936Z,24.80
2023-02-04T12:11:27.412Z,23.10
2023-02-04T12:13:58.168Z,27.10
2023-02-04T12:16:26.584Z,26.40
2023-02-04T12:18:55.628Z,24.70
2023-02-04T12:21:23.742Z,27.60
2023-02-04T12:23:51.866Z,26.80
2023-02-04T12:26:20.030Z,27.30
2023-02-04T12:28:48.008Z,30.40
2023-02-04T12:31:16.463Z,27.60
2023-02-04T12:33:44.799Z,28.20
2023-02-04T12:36:12.789Z,31.90
2023-02-04T12:38:41.027Z,29.70
2023-02-04T12:41:09.621Z,30.30
2023-02-04T12:43:37.795Z,31.30
2023-02-04T12:46:06.083Z,31.30
2023-02-04T12:48:34.229Z,30.90
2023-02-04T12:51:02.353Z,30.70
2023-02-04T12:53:30.514Z,27.90
2023-02-04T12:55:58.700Z,25.10
2023-02-04T12:58:26.872Z,24.00
2023-02-04T13:00:55.396Z,19.60
2023-02-04T13:03:24.474Z,17.00
2023-02-04T13:05:52.658Z,17.60
2023-02-04T13:08:20.708Z,16.60
2023-02-04T13:10:52.028Z,16.60
2023-02-04T13:13:20.597Z,14.00
2023-02-04T13:15:48.873Z,13.80
2023-02-04T13:18:18.454Z,10.10
2023-02-04T13:20:46.836Z,10.40
2023-02-04T13:23:14.901Z,9.40
2023-02-04T13:25:44.813Z,9.30
2023-02-04T13:28:14.105Z,9.20
2023-02-04T13:30:42.258Z,9.20
2023-02-04T13:33:10.600Z,7.50
2023-02-04T13:35:38.660Z,7.70
2023-02-04T13:38:06.941Z,6.30
2023-02-04T13:40:35.116Z,8.30
2023-02-04T13:43:03.192Z,6.80
2023-02-04T13:45:31.955Z,6.80
2023-02-04T13:48:00.374Z,6.70
2023-02-04T13:50:28.566Z,4.80
2023-02-04T13:52:56.836Z,4.90
2023-02-04T13:55:25.010Z,7.20
2023-02-04T13:57:53.044Z,5.80
2023-02-04T14:00:21.032Z,7.00
2023-02-04T14:02:49.138Z,6.60
2023-02-04T14:05:17.244Z,5.10
2023-02-04T14:07:45.399Z,5.70
2023-02-04T14:10:13.784Z,5.20
2023-02-04T14:12:42.167Z,4.00
2023-02-04T14:15:11.167Z,5.10
2023-02-04T14:17:39.244Z,4.50
2023-02-04T14:20:08.241Z,5.20
2023-02-04T14:22:36.412Z,5.80
2023-02-04T14:25:05.240Z,4.50
2023-02-04T14:27:35.527Z,3.00
2023-02-04T14:30:04.311Z,4.30
2023-02-04T14:32:32.403Z,3.90
2023-02-04T14:35:00.497Z,5.40
2023-02-04T14:37:28.767Z,4.00
2023-02-04T14:39:56.849Z,4.20
2023-02-04T14:42:24.912Z,4.30
2023-02-04T14:44:52.897Z,4.50
2023-02-04T14:47:20.955Z,5.40
2023-02-04T14:49:49.208Z,4.70
2023-02-04T14:52:18.145Z,3.80
2023-02-04T14:54:46.113Z,4.90
2023-02-04T14:57:14.289Z,4.50
2023-02-04T14:59:43.329Z,4.70
2023-02-04T15:02:12.213Z,5.00
2023-02-04T15:04:40.362Z,6.70
2023-02-04T15:07:08.746Z,5.50
2023-02-04T15:09:36.903Z,4.50
2023-02-04T15:12:05.720Z,5.60
2023-02-04T15:14:33.820Z,6.50
2023-02-04T15:17:02.229Z,5.30
2023-02-04T15:19:30.458Z,6.40
2023-02-04T15:21:58.539Z,6.00
2023-02-04T15:24:29.365Z,6.30
2023-02-04T15:26:57.442Z,5.10
2023-02-04T15:29:25.525Z,4.60
2023-02-04T15:31:53.595Z,4.90
2023-02-04T15:34:22.087Z,5.20
2023-02-04T15:36:50.323Z,6.10
2023-02-04T15:39:18.853Z,4.60
2023-02-04T15:41:46.926Z,4.50
2023-02-04T15:44:15.157Z,6.80
2023-02-04T15:46:43.289Z,4.50
2023-02-04T15:49:11.571Z,4.40
2023-02-04T15:51:39.941Z,5.40
2023-02-04T15:54:07.925Z,4.30
2023-02-04T15:56:36.103Z,5.20
2023-02-04T15:59:04.185Z,4.10
2023-02-04T16:01:32.399Z,5.10
2023-02-04T16:04:01.277Z,6.10
2023-02-04T16:06:29.333Z,5.00
2023-02-04T16:08:57.317Z,5.10
2023-02-04T16:11:25.505Z,4.90
2023-02-04T16:13:53.494Z,4.30
2023-02-04T16:16:21.711Z,5.50
2023-02-04T16:18:50.044Z,4.30
2023-02-04T16:21:18.205Z,4.50
2023-02-04T16:23:47.286Z,3.30
2023-02-04T16:26:15.495Z,4.30
2023-02-04T16:28:47.469Z,4.60
2023-02-04T16:31:15.885Z,3.80
2023-02-04T16:33:43.998Z,4.30
2023-02-04T16:36:13.679Z,4.80
2023-02-04T16:38:45.585Z,3.90
2023-02-04T16:41:14.540Z,5.60
2023-02-04T16:43:43.225Z,3.70
2023-02-04T16:46:12.584Z,4.00
2023-02-04T16:48:40.650Z,4.40
2023-02-04T16:51:10.237Z,3.90
2023-02-04T16:53:39.625Z,5.10
2023-02-04T16:56:08.044Z,4.20
2023-02-04T16:58:36.013Z,3.60
2023-02-04T17:01:05.310Z,4.90
2023-02-04T17:03:34.518Z,5.60
2023-02-04T17:06:02.827Z,5.00
2023-02-04T17:08:31.188Z,4.80
2023-02-04T17:11:18.201Z,4.50
2023-02-04T17:13:46.476Z,6.60
2023-02-04T17:16:14.725Z,5.20
2023-02-04T17:18:42.843Z,5.00
2023-02-04T17:21:10.815Z,5.00
2023-02-04T17:23:39.015Z,7.10
2023-02-04T17:26:07.164Z,4.80
2023-02-04T17:28:35.239Z,4.20
2023-02-04T17:31:03.421Z,5.00
2023-02-04T17:33:33.031Z,5.40
2023-02-04T17:36:02.464Z,5.50
2023-02-04T17:38:30.522Z,8.10
2023-02-04T17:40:58.647Z,4.80
2023-02-04T17:43:27.102Z,4.90
2023-02-04T17:45:55.279Z,6.10
2023-02-04T17:48:23.252Z,5.80
2023-02-04T17:50:53.413Z,6.20
2023-02-04T17:53:21.839Z,5.80
2023-02-04T17:55:49.932Z,6.00
2023-02-04T17:58:31.031Z,6.30
2023-02-04T18:00:59.554Z,6.30
2023-02-04T18:03:28.990Z,6.40
2023-02-04T18:05:57.881Z,6.20
2023-02-04T18:08:38.237Z,5.60
2023-02-04T18:11:15.558Z,5.90
2023-02-04T18:13:43.914Z,4.30
2023-02-04T18:16:34.130Z,4.40
2023-02-04T18:19:19.259Z,6.70
2023-02-04T18:21:48.934Z,5.60
2023-02-04T18:24:20.102Z,5.30
2023-02-04T18:26:51.607Z,4.90
2023-02-04T18:29:28.750Z,5.30
2023-02-04T18:32:21.500Z,6.40
2023-02-04T18:34:51.913Z,4.10
2023-02-04T18:37:23.476Z,5.70
2023-02-04T18:39:52.473Z,6.20
2023-02-04T18:42:26.110Z,6.30
2023-02-04T18:44:56.918Z,6.40
2023-02-04T18:47:29.701Z,6.20
2023-02-04T18:50:02.067Z,7.00
2023-02-04T18:52:37.394Z,5.10
2023-02-04T18:55:36.806Z,7.90
2023-02-04T18:58:34.157Z,5.60
2023-02-04T19:01:08.219Z,5.10
2023-02-04T19:03:49.944Z,4.90
2023-02-04T19:06:31.837Z,6.10
2023-02-04T19:09:26.777Z,5.90
2023-02-04T19:11:56.939Z,4.40
2023-02-04T19:14:44.771Z,5.30
2023-02-04T19:17:26.667Z,6.20
2023-02-04T19:20:02.182Z,5.20
2023-02-04T19:25:37.148Z,6.10
2023-02-04T19:28:27.535Z,6.10
2023-02-04T19:31:06.448Z,5.60
2023-02-04T19:33:42.549Z,4.50
2023-02-04T19:36:37.147Z,6.50
2023-02-04T19:39:26.761Z,5.30
2023-02-04T19:41:54.942Z,6.80
2023-02-04T19:44:35.388Z,5.60
2023-02-04T19:47:25.713Z,6.60
2023-02-04T19:50:01.960Z,6.40
2023-02-04T19:52:37.521Z,8.00
2023-02-04T19:57:50.125Z,6.30
2023-02-04T20:00:33.762Z,7.10
2023-02-04T20:03:34.989Z,11.00
2023-02-04T20:06:27.702Z,9.00
2023-02-04T20:09:16.188Z,6.90
2023-02-04T20:12:10.052Z,7.10
2023-02-04T20:14:52.131Z,7.60
2023-02-04T20:17:36.585Z,8.90
2023-02-04T20:20:23.196Z,6.80
2023-02-04T20:23:00.074Z,8.00
2023-02-04T20:25:39.180Z,9.20
2023-02-04T20:28:14.526Z,8.50
2023-02-04T20:30:43.505Z,5.50
2023-02-04T20:33:34.933Z,8.50
2023-02-04T20:36:40.935Z,8.10
2023-02-04T20:39:09.064Z,7.40
2023-02-04T20:41:38.689Z,14.20
2023-02-04T20:44:15.672Z,10.60
2023-02-04T20:46:43.724Z,10.40
2023-02-04T20:49:25.629Z,8.60
2023-02-04T20:52:00.232Z,14.90
2023-02-04T20:54:30.660Z,19.50
2023-02-04T20:57:15.620Z,18.40
2023-02-04T20:59:45.135Z,21.90
2023-02-04T21:02:18.252Z,17.20
2023-02-04T21:04:53.993Z,20.50
2023-02-04T21:07:22.995Z,16.60
2023-02-04T21:09:51.845Z,17.80
2023-02-04T21:12:21.603Z,11.90
2023-02-04T21:14:50.384Z,13.00
2023-02-04T21:17:18.455Z,8.60
2023-02-04T21:19:46.734Z,10.80
2023-02-04T21:22:14.699Z,11.60
2023-02-04T21:24:44.743Z,10.20
2023-02-04T21:27:13.112Z,9.00
2023-02-04T21:29:41.490Z,8.00
2023-02-04T21:32:09.683Z,10.50
2023-02-04T21:34:37.946Z,7.70
2023-02-04T21:37:06.339Z,8.80
2023-02-04T21:39:34.310Z,9.40
2023-02-04T21:42:11.395Z,7.10
2023-02-04T21:44:40.188Z,8.70
2023-02-04T21:47:08.295Z,6.10
2023-02-04T21:49:39.781Z,7.70
2023-02-04T21:52:09.842Z,6.80
2023-02-04T21:54:37.915Z,7.10
2023-02-04T21:57:06.300Z,14.90
2023-02-04T21:59:34.238Z,11.70
2023-02-04T22:02:02.263Z,14.70
2023-02-04T22:04:30.522Z,14.00
2023-02-04T22:06:58.604Z,11.40
2023-02-04T22:09:26.676Z,13.20
2023-02-04T22:11:54.648Z,11.00
2023-02-04T22:14:22.696Z,12.10
2023-02-04T22:16:50.713Z,10.50
2023-02-04T22:19:19.714Z,10.10
2023-02-04T22:21:47.879Z,8.60
2023-02-04T22:24:16.059Z,8.50
2023-02-04T22:26:44.344Z,7.90
2023-02-04T22:29:12.415Z,7.90
2023-02-04T22:31:40.724Z,6.30
2023-02-04T22:34:08.982Z,6.90
2023-02-04T22:36:37.167Z,5.80
2023-02-04T22:39:05.131Z,7.10
2023-02-04T22:41:33.814Z,6.00
2023-02-04T22:44:02.006Z,5.90
2023-02-04T22:46:30.121Z,5.00
2023-02-04T22:48:58.271Z,6.60
2023-02-04T22:51:26.637Z,5.90
2023-02-04T22:53:54.936Z,5.70
2023-02-04T22:56:23.513Z,6.50
2023-02-04T22:58:52.930Z,6.20
2023-02-04T23:01:21.511Z,6.50
2023-02-04T23:03:49.945Z,6.20
2023-02-04T23:06:18.484Z,6.80
2023-02-04T23:08:47.064Z,7.80
2023-02-04T23:11:17.600Z,5.90
2023-02-04T23:13:46.702Z,5.10
2023-02-04T23:16:14.828Z,6.40
2023-02-04T23:18:43.046Z,5.10
2023-02-04T23:21:11.629Z,5.10
2023-02-04T23:23:40.010Z,6.00
2023-02-04T23:26:08.842Z,5.10
2023-02-04T23:28:37.190Z,10.00
2023-02-04T23:31:05.686Z,5.30
2023-02-04T23:33:33.702Z,8.00
2023-02-04T23:36:02.031Z,5.70
2023-02-04T23:38:31.348Z,5.40
2023-02-04T23:41:00.241Z,7.00
2023-02-04T23:43:28.418Z,5.20
2023-02-04T23:45:57.536Z,4.90
2023-02-04T23:48:26.210Z,6.20
2023-02-04T23:50:57.245Z,5.40
2023-02-04T23:53:25.582Z,5.70
2023-02-04T23:55:53.612Z,5.70
2023-02-04T23:58:21.991Z,5.40
